createdAt,value
2023-04-25T00:01:40.948Z,3.92
2023-04-25T00:04:08.415Z,3.92
2023-04-25T00:06:35.993Z,3.58
2023-04-25T00:09:02.747Z,3.58
2023-04-25T00:11:29.631Z,3.33
2023-04-25T00:13:56.230Z,3.63
2023-04-25T00:16:22.811Z,2.70
2023-04-25T00:18:50.874Z,3.33
2023-04-25T00:21:17.624Z,3.10
2023-04-25T00:23:44.382Z,3.05
2023-04-25T00:26:10.979Z,2.83
2023-04-25T00:28:37.568Z,3.40
2023-04-25T00:31:04.257Z,3.30
2023-04-25T00:33:30.841Z,3.25
2023-04-25T00:35:58.908Z,3.40
2023-04-25T00:38:25.616Z,3.08
2023-04-25T00:40:52.226Z,3.20
2023-04-25T00:43:18.837Z,3.35
2023-04-25T00:45:48.310Z,2.58
2023-04-25T00:48:14.995Z,2.88
2023-04-25T00:50:42.474Z,2.92
2023-04-25T00:53:10.506Z,3.15
2023-04-25T00:55:37.145Z,3.03
2023-04-25T00:58:03.823Z,3.00
2023-04-25T01:00:30.511Z,3.55
2023-04-25T01:02:57.329Z,3.28
2023-04-25T01:05:24.262Z,2.75
2023-04-25T01:07:51.275Z,3.17
2023-04-25T01:10:19.343Z,3.00
2023-04-25T01:12:45.973Z,3.10
2023-04-25T01:15:12.591Z,3.03
2023-04-25T01:17:39.314Z,3.20
2023-04-25T01:20:07.011Z,2.92
2023-04-25T01:22:35.410Z,3.10
2023-04-25T01:25:02.601Z,2.90
2023-04-25T01:27:29.283Z,2.60
2023-04-25T01:29:56.314Z,2.75
2023-04-25T01:32:23.633Z,3.20
2023-04-25T01:34:50.443Z,2.35
2023-04-25T01:37:17.897Z,2.65
2023-04-25T01:39:46.082Z,2.50
2023-04-25T01:42:13.881Z,2.85
2023-04-25T01:44:40.498Z,2.92
2023-04-25T01:47:07.126Z,3.20
2023-04-25T01:49:33.848Z,3.08
2023-04-25T01:52:00.485Z,3.20
2023-04-25T01:54:27.241Z,3.50
2023-04-25T01:56:58.175Z,3.05
2023-04-25T01:59:24.820Z,3.35
2023-04-25T02:01:51.463Z,3.35
2023-04-25T02:04:18.371Z,3.45
2023-04-25T02:06:45.116Z,3.35
2023-04-25T02:09:11.687Z,3.42
2023-04-25T02:11:38.240Z,3.47
2023-04-25T02:14:06.238Z,4.03
2023-04-25T02:16:32.965Z,3.47
2023-04-25T02:18:59.669Z,3.00
2023-04-25T02:21:26.226Z,3.35
2023-04-25T02:23:53.155Z,3.35
2023-04-25T02:26:20.053Z,3.53
2023-04-25T02:28:46.630Z,3.75
2023-04-25T02:31:14.622Z,3.55
2023-04-25T02:33:41.222Z,3.50
2023-04-25T02:36:08.264Z,2.97
2023-04-25T02:38:34.909Z,3.70
2023-04-25T02:41:01.573Z,3.67
2023-04-25T02:43:28.166Z,3.72
2023-04-25T02:45:54.818Z,3.88
2023-04-25T02:48:22.817Z,4.32
2023-04-25T02:50:49.432Z,4.22
2023-04-25T02:53:16.047Z,4.15
2023-04-25T02:55:42.632Z,3.90
2023-04-25T02:58:09.218Z,3.97
2023-04-25T03:00:35.860Z,3.97
2023-04-25T03:03:02.721Z,4.63
2023-04-25T03:05:30.767Z,4.10
2023-04-25T03:07:57.394Z,3.92
2023-04-25T03:10:24.088Z,4.50
2023-04-25T03:12:50.677Z,4.18
2023-04-25T03:15:17.488Z,4.40
2023-04-25T03:17:44.162Z,5.32
2023-04-25T03:20:11.789Z,4.93
2023-04-25T03:22:39.754Z,4.90
2023-04-25T03:25:07.361Z,4.72
2023-04-25T03:27:34.004Z,4.60
2023-04-25T03:30:00.630Z,4.57
2023-04-25T03:32:27.242Z,4.32
2023-04-25T03:34:53.922Z,4.25
2023-04-25T03:37:20.501Z,4.80
2023-04-25T03:39:48.466Z,4.10
2023-04-25T03:42:15.095Z,4.28
2023-04-25T03:44:41.636Z,4.20
2023-04-25T03:47:08.213Z,3.90
2023-04-25T03:49:35.419Z,4.13
2023-04-25T03:52:02.226Z,4.00
2023-04-25T03:54:28.796Z,3.50
2023-04-25T03:56:56.831Z,3.45
2023-04-25T03:59:23.536Z,3.63
2023-04-25T04:01:50.164Z,4.03
2023-04-25T04:04:17.055Z,3.92
2023-04-25T04:06:43.825Z,3.47
2023-04-25T04:09:10.414Z,3.78
2023-04-25T04:11:37.074Z,3.88
2023-04-25T04:14:05.064Z,3.45
2023-04-25T04:16:34.364Z,3.20
2023-04-25T04:19:01.161Z,2.38
2023-04-25T04:21:27.766Z,2.30
2023-04-25T04:23:54.436Z,3.00
2023-04-25T04:26:21.078Z,3.72
2023-04-25T04:28:47.670Z,3.20
2023-04-25T04:31:15.605Z,2.58
2023-04-25T04:33:42.192Z,2.88
2023-04-25T04:36:08.878Z,2.90
2023-04-25T04:38:35.580Z,2.80
2023-04-25T04:41:02.209Z,2.85
2023-04-25T04:43:32.026Z,3.13
2023-04-25T04:45:58.835Z,2.83
2023-04-25T04:48:26.931Z,2.78
2023-04-25T04:50:53.700Z,2.90
2023-04-25T04:53:24.663Z,2.70
2023-04-25T04:55:52.246Z,2.95
2023-04-25T04:58:25.342Z,2.83
2023-04-25T05:01:26.273Z,3.20
2023-04-25T05:04:04.940Z,3.20
2023-04-25T05:06:39.824Z,3.58
2023-04-25T05:09:17.557Z,3.30
2023-04-25T05:11:46.110Z,3.40
2023-04-25T05:14:14.709Z,3.13
2023-04-25T05:16:47.203Z,3.58
2023-04-25T05:19:25.893Z,3.80
2023-04-25T05:21:58.941Z,3.88
2023-04-25T05:24:31.376Z,3.58
2023-04-25T05:27:06.146Z,3.60
2023-04-25T05:29:44.132Z,3.63
2023-04-25T05:32:12.011Z,3.95
2023-04-25T05:34:52.379Z,4.22
2023-04-25T05:37:24.600Z,4.25
2023-04-25T05:40:01.429Z,4.28
2023-04-25T05:42:35.388Z,4.50
2023-04-25T05:45:02.607Z,4.25
2023-04-25T05:47:30.801Z,5.85
2023-04-25T05:50:17.382Z,4.90
2023-04-25T05:52:48.480Z,4.40
2023-04-25T05:55:15.829Z,5.30
2023-04-25T05:57:44.522Z,4.82
2023-04-25T06:00:15.538Z,4.25
2023-04-25T06:02:44.738Z,5.22
2023-04-25T06:05:21.259Z,4.85
2023-04-25T06:07:49.088Z,5.57
2023-04-25T06:10:18.545Z,5.40
2023-04-25T06:12:46.935Z,5.78
2023-04-25T06:15:27.052Z,5.25
2023-04-25T06:17:57.920Z,5.50
2023-04-25T06:20:41.501Z,6.00
2023-04-25T06:23:10.532Z,6.10
2023-04-25T06:25:43.058Z,5.72
2023-04-25T06:28:12.348Z,5.50
2023-04-25T06:30:45.204Z,5.60
2023-04-25T06:33:16.798Z,6.40
2023-04-25T06:36:00.821Z,6.60
2023-04-25T06:38:34.000Z,5.45
2023-04-25T06:41:02.345Z,5.75
2023-04-25T06:43:32.788Z,5.30
2023-04-25T06:46:01.424Z,5.07
2023-04-25T06:48:41.398Z,5.82
2023-04-25T06:51:24.190Z,6.15
2023-04-25T06:53:51.917Z,6.65
2023-04-25T06:56:24.255Z,7.05
2023-04-25T06:58:52.907Z,8.27
2023-04-25T07:01:23.220Z,6.90
2023-04-25T07:03:55.161Z,7.80
2023-04-25T07:06:29.811Z,4.82
2023-04-25T07:08:59.885Z,4.38
2023-04-25T07:11:27.491Z,4.93
2023-04-25T07:14:14.557Z,4.20
2023-04-25T07:16:51.438Z,4.40
2023-04-25T07:19:19.976Z,4.53
2023-04-25T07:21:56.697Z,5.13
2023-04-25T07:24:25.290Z,5.50
2023-04-25T07:26:56.335Z,4.80
2023-04-25T07:29:25.509Z,4.55
2023-04-25T07:31:59.674Z,4.10
2023-04-25T07:34:28.578Z,4.68
2023-04-25T07:37:00.098Z,4.43
2023-04-25T07:39:27.384Z,4.22
2023-04-25T07:41:58.043Z,3.67
2023-04-25T07:44:33.506Z,4.05
2023-04-25T07:47:06.196Z,4.38
2023-04-25T07:49:41.759Z,4.20
2023-04-25T07:52:14.146Z,4.60
2023-04-25T07:54:41.891Z,3.90
2023-04-25T07:57:15.484Z,3.50
2023-04-25T07:59:47.368Z,3.80
2023-04-25T08:02:22.169Z,3.40
2023-04-25T08:04:51.383Z,3.95
2023-04-25T08:07:25.171Z,4.30
2023-04-25T08:09:52.371Z,3.85
2023-04-25T08:12:23.456Z,3.90
2023-04-25T08:15:02.634Z,3.40
2023-04-25T08:17:33.077Z,2.95
2023-04-25T08:20:18.260Z,2.60
2023-04-25T08:22:50.618Z,2.60
2023-04-25T08:25:36.786Z,2.33
2023-04-25T08:28:08.612Z,2.10
2023-04-25T08:30:37.964Z,2.10
2023-04-25T08:33:22.758Z,2.35
2023-04-25T08:35:51.401Z,2.60
2023-04-25T08:38:20.078Z,1.95
2023-04-25T08:40:51.492Z,2.30
2023-04-25T08:43:20.923Z,2.15
2023-04-25T08:45:50.598Z,2.50
2023-04-25T08:48:21.379Z,2.10
2023-04-25T08:50:59.092Z,2.53
2023-04-25T08:53:36.365Z,2.40
2023-04-25T08:56:07.000Z,2.15
2023-04-25T08:58:36.036Z,2.00
2023-04-25T09:01:04.891Z,2.20
2023-04-25T09:03:39.081Z,2.45
2023-04-25T09:06:10.465Z,2.00
2023-04-25T09:08:44.274Z,2.22
2023-04-25T09:11:12.203Z,2.17
2023-04-25T09:13:39.800Z,2.00
2023-04-25T09:16:17.318Z,2.22
2023-04-25T09:18:48.809Z,2.43
2023-04-25T09:21:20.086Z,2.05
2023-04-25T09:23:55.419Z,2.47
2023-04-25T09:26:24.180Z,2.20
2023-04-25T09:29:09.402Z,1.98
2023-04-25T09:34:28.304Z,2.10
2023-04-25T09:36:59.473Z,2.15
2023-04-25T09:39:50.046Z,2.78
2023-04-25T09:42:23.408Z,2.00
2023-04-25T09:44:53.412Z,2.07
2023-04-25T09:47:28.736Z,1.73
2023-04-25T09:50:01.373Z,1.67
2023-04-25T09:52:40.354Z,2.03
2023-04-25T09:55:27.688Z,2.10
2023-04-25T09:58:07.424Z,1.70
2023-04-25T10:00:35.838Z,1.30
2023-04-25T10:03:27.480Z,1.48
2023-04-25T10:06:03.567Z,1.23
2023-04-25T10:08:38.053Z,1.30
2023-04-25T10:13:55.584Z,1.30
2023-04-25T10:16:23.271Z,1.08
2023-04-25T10:18:56.344Z,0.90
2023-04-25T10:21:24.007Z,0.90
2023-04-25T10:23:54.161Z,0.77
2023-04-25T10:26:41.308Z,0.82
2023-04-25T10:29:11.979Z,0.90
2023-04-25T10:31:59.328Z,0.90
2023-04-25T10:34:39.626Z,0.77
2023-04-25T10:37:13.969Z,0.70
2023-04-25T10:39:44.348Z,0.90
2023-04-25T10:42:15.746Z,0.90
2023-04-25T10:45:05.272Z,0.75
2023-04-25T10:47:47.519Z,0.70
2023-04-25T10:50:20.005Z,0.63
2023-04-25T10:52:52.020Z,0.88
2023-04-25T10:55:23.014Z,1.00
2023-04-25T10:57:56.291Z,0.88
2023-04-25T11:00:34.196Z,1.00
2023-04-25T11:03:11.506Z,1.00
2023-04-25T11:05:58.311Z,1.00
2023-04-25T11:08:43.292Z,0.85
2023-04-25T11:11:11.340Z,1.00
2023-04-25T11:16:35.263Z,1.00
2023-04-25T11:19:09.140Z,1.05
2023-04-25T11:21:42.883Z,1.05
2023-04-25T11:24:12.185Z,1.00
2023-04-25T11:26:43.861Z,1.00
2023-04-25T11:29:38.119Z,1.03
2023-04-25T11:32:12.076Z,1.67
2023-04-25T11:34:46.124Z,1.38
2023-04-25T11:37:13.779Z,1.10
2023-04-25T11:39:58.321Z,1.20
2023-04-25T11:42:28.611Z,1.27
2023-04-25T11:45:17.153Z,1.70
2023-04-25T11:47:44.836Z,1.48
2023-04-25T11:50:13.301Z,1.33
2023-04-25T11:52:42.108Z,1.92
2023-04-25T11:55:13.737Z,1.00
2023-04-25T11:57:45.011Z,1.20
2023-04-25T12:03:00.734Z,1.58
2023-04-25T12:08:15.481Z,1.10
2023-04-25T12:10:46.225Z,1.38
2023-04-25T12:13:25.707Z,0.90
2023-04-25T12:15:54.982Z,1.55
2023-04-25T12:18:28.421Z,1.45
2023-04-25T12:20:56.568Z,1.30
2023-04-25T12:23:33.317Z,1.70
2023-04-25T12:26:01.359Z,2.88
2023-04-25T12:28:46.222Z,1.30
2023-04-25T12:31:22.185Z,1.83
2023-04-25T12:33:52.757Z,1.20
2023-04-25T12:36:22.236Z,1.50
2023-04-25T12:38:53.222Z,1.50
2023-04-25T12:41:25.359Z,1.35
2023-04-25T12:43:54.664Z,1.35
2023-04-25T12:46:30.482Z,0.90
2023-04-25T12:49:11.730Z,0.82
2023-04-25T12:52:01.566Z,1.20
2023-04-25T12:54:28.553Z,1.10
2023-04-25T12:56:59.022Z,1.00
2023-04-25T12:59:27.039Z,1.30
2023-04-25T13:01:57.813Z,1.40
2023-04-25T13:04:44.323Z,1.23
2023-04-25T13:07:17.282Z,1.10
2023-04-25T13:09:46.681Z,1.05
2023-04-25T13:12:14.242Z,1.00
2023-04-25T13:14:57.032Z,1.20
2023-04-25T13:17:32.948Z,1.10
2023-04-25T13:20:05.236Z,0.80
2023-04-25T13:22:37.227Z,1.10
2023-04-25T13:25:07.443Z,1.10
2023-04-25T13:30:21.860Z,0.95
2023-04-25T13:32:55.275Z,1.40
2023-04-25T13:35:30.383Z,0.77
2023-04-25T13:40:50.815Z,1.60
2023-04-25T13:43:29.893Z,0.90
2023-04-25T13:46:44.715Z,0.90
2023-04-25T13:49:16.224Z,0.70
2023-04-25T13:51:51.535Z,0.83
2023-04-25T13:54:20.326Z,1.15
2023-04-25T13:56:51.011Z,0.70
2023-04-25T14:02:20.622Z,0.88
2023-04-25T14:04:49.267Z,1.23
2023-04-25T14:07:20.127Z,1.75
2023-04-25T14:10:03.537Z,1.30
2023-04-25T14:12:43.435Z,1.40
2023-04-25T14:15:14.676Z,1.10
2023-04-25T14:17:41.667Z,1.20
2023-04-25T14:20:16.883Z,1.10
2023-04-25T14:22:46.854Z,1.00
2023-04-25T14:25:42.306Z,1.30
2023-04-25T14:28:12.399Z,1.33
2023-04-25T14:30:44.516Z,1.40
2023-04-25T14:33:23.622Z,1.20
2023-04-25T14:35:52.714Z,1.30
2023-04-25T14:38:23.491Z,1.50
2023-04-25T14:40:53.495Z,1.10
2023-04-25T14:43:22.005Z,1.50
2023-04-25T14:45:56.095Z,1.45
2023-04-25T14:48:25.378Z,1.50
2023-04-25T14:50:59.089Z,1.30
2023-04-25T14:53:32.011Z,1.48
2023-04-25T14:56:03.349Z,1.20
2023-04-25T14:58:32.720Z,1.70
2023-04-25T15:01:01.861Z,1.40
2023-04-25T15:03:30.296Z,1.38
2023-04-25T15:05:58.897Z,1.80
2023-04-25T15:08:32.432Z,1.17
2023-04-25T15:11:02.983Z,1.55
2023-04-25T15:13:52.110Z,1.20
2023-04-25T15:16:24.164Z,1.30
2023-04-25T15:18:52.813Z,1.60
2023-04-25T15:21:32.934Z,1.47
2023-04-25T15:24:07.966Z,2.00
2023-04-25T15:26:46.413Z,1.65
2023-04-25T15:29:19.113Z,2.22
2023-04-25T15:31:48.525Z,1.70
2023-04-25T15:34:38.237Z,1.40
2023-04-25T15:37:07.156Z,1.40
2023-04-25T15:39:41.405Z,1.50
2023-04-25T15:42:20.573Z,2.03
2023-04-25T15:44:48.052Z,1.33
2023-04-25T15:47:17.712Z,4.80
2023-04-25T15:50:06.026Z,2.70
2023-04-25T15:52:39.022Z,3.28
2023-04-25T15:55:06.900Z,3.22
2023-04-25T15:57:37.499Z,4.38
2023-04-25T16:00:08.171Z,3.47
2023-04-25T16:02:42.953Z,19.45
2023-04-25T16:05:16.382Z,6.88
2023-04-25T16:10:50.514Z,9.40
2023-04-25T16:13:30.956Z,9.27
2023-04-25T16:16:03.678Z,5.82
2023-04-25T16:18:31.501Z,3.10
2023-04-25T16:21:09.806Z,11.07
2023-04-25T16:23:37.449Z,2.67
2023-04-25T16:26:08.368Z,2.53
2023-04-25T16:28:43.371Z,4.53
2023-04-25T16:31:19.331Z,8.65
2023-04-25T16:33:55.365Z,5.10
2023-04-25T16:36:32.350Z,4.50
2023-04-25T16:39:11.966Z,2.07
2023-04-25T16:44:28.298Z,4.68
2023-04-25T16:46:58.177Z,5.53
2023-04-25T16:49:32.183Z,5.32
2023-04-25T16:52:03.206Z,7.70
2023-04-25T16:54:32.171Z,5.75
2023-04-25T16:57:02.197Z,6.80
2023-04-25T16:59:51.448Z,2.30
2023-04-25T17:02:19.844Z,2.72
2023-04-25T17:04:54.402Z,2.03
2023-04-25T17:07:22.499Z,1.83
2023-04-25T17:10:02.383Z,2.05
2023-04-25T17:12:36.386Z,2.30
2023-04-25T17:15:27.246Z,2.40
2023-04-25T17:17:58.365Z,1.43
2023-04-25T17:20:30.416Z,1.48
2023-04-25T17:23:01.751Z,1.50
2023-04-25T17:25:30.564Z,1.88
2023-04-25T17:28:03.727Z,3.35
2023-04-25T17:30:36.280Z,3.67
2023-04-25T17:33:04.588Z,2.50
2023-04-25T17:35:32.474Z,7.13
2023-04-25T17:38:07.736Z,7.95
2023-04-25T17:40:39.383Z,6.57
2023-04-25T17:43:09.750Z,2.77
2023-04-25T17:45:55.184Z,2.28
2023-04-25T17:48:25.249Z,2.30
2023-04-25T17:53:38.014Z,1.50
2023-04-25T17:56:23.382Z,1.50
2023-04-25T17:58:55.966Z,1.83
2023-04-25T18:01:47.680Z,1.80
2023-04-25T18:09:48.333Z,2.05
2023-04-25T18:12:36.072Z,1.52
2023-04-25T18:15:11.174Z,1.70
2023-04-25T18:17:54.080Z,1.58
2023-04-25T18:20:23.211Z,1.70
2023-04-25T18:22:55.148Z,1.73
2023-04-25T18:25:23.485Z,1.40
2023-04-25T18:28:01.935Z,1.77
2023-04-25T18:30:32.514Z,1.15
2023-04-25T18:33:33.501Z,1.50
2023-04-25T18:36:03.811Z,1.10
2023-04-25T18:38:36.206Z,1.30
2023-04-25T18:41:33.752Z,1.17
2023-04-25T18:43:56.740Z,1.30
2023-04-25T18:46:25.190Z,12.98
2023-04-25T18:48:58.236Z,11.85
2023-04-25T18:51:27.844Z,4.30
2023-04-25T18:53:56.457Z,2.53
2023-04-25T18:56:25.507Z,2.20
2023-04-25T18:58:54.378Z,2.10
2023-04-25T19:01:23.621Z,2.10
2023-04-25T19:03:55.762Z,2.08
2023-04-25T19:06:34.741Z,1.65
2023-04-25T19:09:03.024Z,1.70
2023-04-25T19:11:30.612Z,1.60
2023-04-25T19:14:01.499Z,1.20
2023-04-25T19:16:32.426Z,1.48
2023-04-25T19:19:01.031Z,1.27
2023-04-25T19:21:31.747Z,1.60
2023-04-25T19:24:02.851Z,1.48
2023-04-25T19:26:35.128Z,1.60
2023-04-25T19:29:09.032Z,1.60
2023-04-25T19:31:45.985Z,1.83
2023-04-25T19:34:17.126Z,1.98
2023-04-25T19:39:31.389Z,2.17
2023-04-25T19:42:00.376Z,2.10
2023-04-25T19:44:30.534Z,2.00
2023-04-25T19:46:59.265Z,1.65
2023-04-25T19:49:28.371Z,1.80
2023-04-25T19:51:58.579Z,1.70
2023-04-25T19:54:26.151Z,1.58
2023-04-25T19:57:05.451Z,1.40
2023-04-25T19:59:34.277Z,1.42
2023-04-25T20:02:08.819Z,1.92
2023-04-25T20:04:41.205Z,1.60
2023-04-25T20:07:14.491Z,1.27
2023-04-25T20:09:48.325Z,1.55
2023-04-25T20:12:26.624Z,1.70
2023-04-25T20:14:58.264Z,1.13
2023-04-25T20:17:26.349Z,1.83
2023-04-25T20:20:05.034Z,1.10
2023-04-25T20:22:48.453Z,1.20
2023-04-25T20:25:19.911Z,1.30
2023-04-25T20:27:51.053Z,1.50
2023-04-25T20:30:24.051Z,1.83
2023-04-25T20:32:52.054Z,2.20
2023-04-25T20:35:19.048Z,1.95
2023-04-25T20:37:50.433Z,1.52
2023-04-25T20:40:21.881Z,1.60
2023-04-25T20:42:49.179Z,1.85
2023-04-25T20:45:18.323Z,1.75
2023-04-25T20:47:57.742Z,1.15
2023-04-25T20:50:26.644Z,1.15
2023-04-25T20:53:01.865Z,1.15
2023-04-25T20:55:30.215Z,1.30
2023-04-25T20:57:58.439Z,1.20
2023-04-25T21:00:28.716Z,1.05
2023-04-25T21:02:58.399Z,1.15
2023-04-25T21:05:27.142Z,1.45
2023-04-25T21:08:03.632Z,1.50
2023-04-25T21:10:36.171Z,1.58
2023-04-25T21:13:04.801Z,1.20
2023-04-25T21:15:37.969Z,1.50
2023-04-25T21:18:07.469Z,1.90
2023-04-25T21:20:40.055Z,1.70
2023-04-25T21:23:15.310Z,1.70
2023-04-25T21:25:44.781Z,1.70
2023-04-25T21:28:14.302Z,2.13
2023-04-25T21:30:44.126Z,2.90
2023-04-25T21:33:13.579Z,3.13
2023-04-25T21:35:42.562Z,2.85
2023-04-25T21:38:16.039Z,2.72
2023-04-25T21:40:47.730Z,2.42
2023-04-25T21:43:19.763Z,2.58
2023-04-25T21:46:19.075Z,2.65
2023-04-25T21:48:57.117Z,2.08
2023-04-25T21:51:33.494Z,2.35
2023-04-25T21:54:21.262Z,4.10
2023-04-25T21:57:10.125Z,4.40
2023-04-25T22:00:01.285Z,3.88
2023-04-25T22:02:29.778Z,4.18
2023-04-25T22:05:07.965Z,3.75
2023-04-25T22:07:35.264Z,3.72
2023-04-25T22:10:12.563Z,3.30
2023-04-25T22:12:41.741Z,3.22
2023-04-25T22:15:12.629Z,3.10
2023-04-25T22:17:45.440Z,2.08
2023-04-25T22:20:15.145Z,1.70
2023-04-25T22:22:43.361Z,2.35
2023-04-25T22:25:15.448Z,1.88
2023-04-25T22:27:46.621Z,1.50
2023-04-25T22:30:15.191Z,1.20
2023-04-25T22:33:28.974Z,1.40
2023-04-25T22:36:02.805Z,1.42
2023-04-25T22:38:34.920Z,1.42
2023-04-25T22:41:12.117Z,1.63
2023-04-25T22:43:54.329Z,1.70
2023-04-25T22:46:26.202Z,1.48
2023-04-25T22:48:57.857Z,1.33
2023-04-25T22:51:27.195Z,1.65
2023-04-25T22:53:54.596Z,1.27
2023-04-25T22:56:30.186Z,1.40
2023-04-25T22:59:03.371Z,1.60
2023-04-25T23:01:33.721Z,1.60
2023-04-25T23:04:06.530Z,2.08
2023-04-25T23:06:41.970Z,1.85
2023-04-25T23:09:13.193Z,1.42
2023-04-25T23:11:54.440Z,1.70
2023-04-25T23:14:26.188Z,1.55
2023-04-25T23:16:59.193Z,1.55
2023-04-25T23:19:28.200Z,1.88
2023-04-25T23:24:38.919Z,1.95
2023-04-25T23:27:11.858Z,1.70
2023-04-25T23:29:43.665Z,1.85
2023-04-25T23:32:13.872Z,1.73
2023-04-25T23:34:49.297Z,1.92
2023-04-25T23:37:23.815Z,1.73
2023-04-25T23:39:52.668Z,1.73
2023-04-25T23:42:26.319Z,1.52
2023-04-25T23:45:01.818Z,1.90
2023-04-25T23:47:34.543Z,2.08
2023-04-25T23:50:13.284Z,1.73
2023-04-25T23:52:55.651Z,2.08
2023-04-25T23:55:26.888Z,2.08
2023-04-25T23:58:04.318Z,1.35
